Main page
Satellite images 15-day forecastsClimateMarine weather Cyclones Lightning AirportsFAQ Newsletter About
Weather : Europe Africa North America South America Asia Australia-Oceania Others
Languages Contact

Rovaniemi, Finland

latitude: 66-34N, longitude: 025-50E, elevation: 197 m


METAR: EFRO 250450Z 31005KT 9999 BKN038 03/M05 Q1022
short-TAF: out of date (33229 hours)
long-TAF: EFRO 250222Z 2503/2603 01004KT 9999 BKN040

Time: 08:10 (05:10 UTC)

Current weather observation

The report was made 20 minutes ago, at 04:50 UTC  
Wind 05 kt from northwest
Temperature 3°C
Humidity 56%
Pressure 1022 hPa
Visibility 10 km or more
Broken clouds at a height of 3800 ft

Change units

Forecast

The report was made 2 hours and 28 minutes ago, at 02:42 UTC  
Forecast valid from 25 at 03 UTC to 26 at 03 UTC
Wind 04 kt from north
Visibility 10 km or more
Broken clouds at a height of 4000 ft
The information on this site is subject to a disclaimer
Weather : Europe Africa North America South America Asia Australia-Oceania Others
Satellite images 15-day forecastsClimateMarine weather Cyclones Lightning AirportsFAQ Languages Contact Newsletter About